sensor_id;sensor_type;location;lat;lon;timestamp;temperature;humidity
6956;DHT22;50345;51.136;16.886;2024-03-23T00:52:12;10.80;99.90
6956;DHT22;50345;51.136;16.886;2024-03-23T00:54:37;10.80;99.90
6956;DHT22;50345;51.136;16.886;2024-03-23T00:57:03;10.90;99.90
6956;DHT22;50345;51.136;16.886;2024-03-23T00:59:28;10.90;99.90
6956;DHT22;50345;51.136;16.886;2024-03-23T01:01:54;10.90;99.90
6956;DHT22;50345;51.136;16.886;2024-03-23T01:04:20;10.90;99.90
6956;DHT22;50345;51.136;16.886;2024-03-23T01:06:46;10.80;99.90
6956;DHT22;50345;51.136;16.886;2024-03-23T01:09:12;10.80;99.90
6956;DHT22;50345;51.136;16.886;2024-03-23T01:11:39;10.80;99.90
6956;DHT22;50345;51.136;16.886;2024-03-23T01:14:05;10.80;99.90
6956;DHT22;50345;51.136;16.886;2024-03-23T01:16:31;10.80;99.90
6956;DHT22;50345;51.136;16.886;2024-03-23T01:18:57;10.80;99.90
6956;DHT22;50345;51.136;16.886;2024-03-23T01:21:23;10.80;99.90
6956;DHT22;50345;51.136;16.886;2024-03-23T01:23:48;10.90;99.90
6956;DHT22;50345;51.136;16.886;2024-03-23T01:26:14;10.80;99.90
6956;DHT22;50345;51.136;16.886;2024-03-23T01:28:40;10.80;99.90
6956;DHT22;50345;51.136;16.886;2024-03-23T01:31:05;10.80;99.90
6956;DHT22;50345;51.136;16.886;2024-03-23T01:33:31;10.80;99.90
6956;DHT22;50345;51.136;16.886;2024-03-23T01:35:57;10.80;99.90
6956;DHT22;50345;51.136;16.886;2024-03-23T01:38:22;10.70;99.90
6956;DHT22;50345;51.136;16.886;2024-03-23T01:40:48;10.70;99.90
6956;DHT22;50345;51.136;16.886;2024-03-23T01:43:13;10.70;99.90
6956;DHT22;50345;51.136;16.886;2024-03-23T01:45:39;10.70;99.90
6956;DHT22;50345;51.136;16.886;2024-03-23T01:48:05;10.70;99.90
6956;DHT22;50345;51.136;16.886;2024-03-23T01:50:31;10.70;99.90
6956;DHT22;50345;51.136;16.886;2024-03-23T01:53:02;10.70;99.90
6956;DHT22;50345;51.136;16.886;2024-03-23T01:55:28;10.70;99.90
6956;DHT22;50345;51.136;16.886;2024-03-23T01:57:56;10.70;99.90
6956;DHT22;50345;51.136;16.886;2024-03-23T02:00:22;10.60;99.90
6956;DHT22;50345;51.136;16.886;2024-03-23T02:02:48;10.70;99.90
6956;DHT22;50345;51.136;16.886;2024-03-23T02:05:14;10.70;99.90
6956;DHT22;50345;51.136;16.886;2024-03-23T02:07:40;10.70;99.90
6956;DHT22;50345;51.136;16.886;2024-03-23T02:10:10;10.70;99.90
6956;DHT22;50345;51.136;16.886;2024-03-23T02:12:36;10.70;99.90
6956;DHT22;50345;51.136;16.886;2024-03-23T02:15:02;10.70;99.90
6956;DHT22;50345;51.136;16.886;2024-03-23T02:17:30;10.80;99.90
6956;DHT22;50345;51.136;16.886;2024-03-23T02:19:56;10.80;99.90
6956;DHT22;50345;51.136;16.886;2024-03-23T02:22:21;10.80;99.90
6956;DHT22;50345;51.136;16.886;2024-03-23T02:24:47;10.70;99.90
6956;DHT22;50345;51.136;16.886;2024-03-23T02:27:13;10.70;99.90
6956;DHT22;50345;51.136;16.886;2024-03-23T02:29:39;10.70;99.90
6956;DHT22;50345;51.136;16.886;2024-03-23T02:32:04;10.80;99.90
6956;DHT22;50345;51.136;16.886;2024-03-23T02:34:30;10.80;99.90
6956;DHT22;50345;51.136;16.886;2024-03-23T02:36:56;10.80;99.90
6956;DHT22;50345;51.136;16.886;2024-03-23T02:39:21;10.80;99.90
6956;DHT22;50345;51.136;16.886;2024-03-23T02:41:47;10.90;99.90
6956;DHT22;50345;51.136;16.886;2024-03-23T02:44:13;10.80;99.90
6956;DHT22;50345;51.136;16.886;2024-03-23T02:46:39;10.70;99.90
6956;DHT22;50345;51.136;16.886;2024-03-23T02:49:05;10.70;99.90
6956;DHT22;50345;51.136;16.886;2024-03-23T02:51:30;10.70;99.90
6956;DHT22;50345;51.136;16.886;2024-03-23T02:53:56;10.70;99.90
6956;DHT22;50345;51.136;16.886;2024-03-23T02:56:22;10.80;99.90
6956;DHT22;50345;51.136;16.886;2024-03-23T02:58:47;10.80;99.90
6956;DHT22;50345;51.136;16.886;2024-03-23T03:01:13;10.90;99.90
6956;DHT22;50345;51.136;16.886;2024-03-23T03:03:38;10.90;99.90
6956;DHT22;50345;51.136;16.886;2024-03-23T03:06:04;11.00;99.90
6956;DHT22;50345;51.136;16.886;2024-03-23T03:08:30;11.00;99.90
6956;DHT22;50345;51.136;16.886;2024-03-23T03:10:55;11.00;99.90
6956;DHT22;50345;51.136;16.886;2024-03-23T03:13:21;11.00;99.90
6956;DHT22;50345;51.136;16.886;2024-03-23T03:15:46;10.90;99.90
6956;DHT22;50345;51.136;16.886;2024-03-23T03:18:12;10.90;99.90
6956;DHT22;50345;51.136;16.886;2024-03-23T03:20:41;10.90;99.90
6956;DHT22;50345;51.136;16.886;2024-03-23T03:23:07;10.90;99.90
6956;DHT22;50345;51.136;16.886;2024-03-23T03:25:33;10.90;99.90
6956;DHT22;50345;51.136;16.886;2024-03-23T03:27:58;10.90;99.90
6956;DHT22;50345;51.136;16.886;2024-03-23T03:30:24;10.80;99.90
6956;DHT22;50345;51.136;16.886;2024-03-23T03:32:54;10.80;99.90
6956;DHT22;50345;51.136;16.886;2024-03-23T03:35:20;10.80;99.90
6956;DHT22;50345;51.136;16.886;2024-03-23T03:37:46;10.90;99.90
6956;DHT22;50345;51.136;16.886;2024-03-23T03:40:12;10.90;99.90
6956;DHT22;50345;51.136;16.886;2024-03-23T03:42:37;10.90;99.90
6956;DHT22;50345;51.136;16.886;2024-03-23T03:45:04;10.80;99.90
6956;DHT22;50345;51.136;16.886;2024-03-23T03:47:30;10.80;99.90
6956;DHT22;50345;51.136;16.886;2024-03-23T03:49:55;10.80;99.90
6956;DHT22;50345;51.136;16.886;2024-03-23T03:52:21;10.70;99.90
6956;DHT22;50345;51.136;16.886;2024-03-23T03:54:47;10.70;99.90
6956;DHT22;50345;51.136;16.886;2024-03-23T03:57:12;10.70;99.90
6956;DHT22;50345;51.136;16.886;2024-03-23T03:59:38;10.80;99.90
6956;DHT22;50345;51.136;16.886;2024-03-23T04:02:03;10.80;99.90
6956;DHT22;50345;51.136;16.886;2024-03-23T04:04:29;10.80;99.90
6956;DHT22;50345;51.136;16.886;2024-03-23T04:07:01;10.70;99.90
6956;DHT22;50345;51.136;16.886;2024-03-23T04:09:27;10.70;99.90
6956;DHT22;50345;51.136;16.886;2024-03-23T04:11:53;10.70;99.90
6956;DHT22;50345;51.136;16.886;2024-03-23T04:14:19;10.70;99.90
6956;DHT22;50345;51.136;16.886;2024-03-23T04:16:44;10.70;99.90
6956;DHT22;50345;51.136;16.886;2024-03-23T04:19:10;10.70;99.90
6956;DHT22;50345;51.136;16.886;2024-03-23T04:21:37;10.70;99.90
6956;DHT22;50345;51.136;16.886;2024-03-23T04:24:03;10.70;99.90
6956;DHT22;50345;51.136;16.886;2024-03-23T04:26:29;10.70;99.90
6956;DHT22;50345;51.136;16.886;2024-03-23T04:28:55;10.70;99.90
6956;DHT22;50345;51.136;16.886;2024-03-23T04:31:20;10.70;99.90
6956;DHT22;50345;51.136;16.886;2024-03-23T04:33:47;10.60;99.90
6956;DHT22;50345;51.136;16.886;2024-03-23T04:36:12;10.60;99.90
6956;DHT22;50345;51.136;16.886;2024-03-23T04:38:38;10.60;99.90
6956;DHT22;50345;51.136;16.886;2024-03-23T04:41:03;10.50;99.90
6956;DHT22;50345;51.136;16.886;2024-03-23T04:43:29;10.50;99.90
6956;DHT22;50345;51.136;16.886;2024-03-23T04:45:55;10.40;99.90
6956;DHT22;50345;51.136;16.886;2024-03-23T04:48:21;10.40;99.90
6956;DHT22;50345;51.136;16.886;2024-03-23T04:50:55;10.30;99.90
6956;DHT22;50345;51.136;16.886;2024-03-23T04:53:21;10.30;99.90
6956;DHT22;50345;51.136;16.886;2024-03-23T04:55:47;10.30;99.90
6956;DHT22;50345;51.136;16.886;2024-03-23T04:58:12;10.30;99.90
6956;DHT22;50345;51.136;16.886;2024-03-23T05:00:38;10.30;99.90
6956;DHT22;50345;51.136;16.886;2024-03-23T05:03:04;10.30;99.90
6956;DHT22;50345;51.136;16.886;2024-03-23T05:05:29;10.20;99.90
6956;DHT22;50345;51.136;16.886;2024-03-23T05:07:55;10.30;99.90
6956;DHT22;50345;51.136;16.886;2024-03-23T05:10:20;10.20;99.90
6956;DHT22;50345;51.136;16.886;2024-03-23T05:12:46;10.30;99.90
6956;DHT22;50345;51.136;16.886;2024-03-23T05:15:12;10.40;99.90
6956;DHT22;50345;51.136;16.886;2024-03-23T05:17:38;10.30;99.90
6956;DHT22;50345;51.136;16.886;2024-03-23T05:20:04;10.30;99.90
6956;DHT22;50345;51.136;16.886;2024-03-23T05:22:30;10.30;99.90
6956;DHT22;50345;51.136;16.886;2024-03-23T05:24:56;10.30;99.90
6956;DHT22;50345;51.136;16.886;2024-03-23T05:27:22;10.30;99.90
6956;DHT22;50345;51.136;16.886;2024-03-23T05:29:47;10.30;99.90
6956;DHT22;50345;51.136;16.886;2024-03-23T05:32:13;10.30;99.90
6956;DHT22;50345;51.136;16.886;2024-03-23T05:34:38;10.30;99.90
6956;DHT22;50345;51.136;16.886;2024-03-23T05:37:04;10.30;99.90
6956;DHT22;50345;51.136;16.886;2024-03-23T05:39:29;10.20;99.90
6956;DHT22;50345;51.136;16.886;2024-03-23T05:41:55;10.20;99.90
6956;DHT22;50345;51.136;16.886;2024-03-23T05:44:21;10.20;99.90
6956;DHT22;50345;51.136;16.886;2024-03-23T05:46:46;10.20;99.90
6956;DHT22;50345;51.136;16.886;2024-03-23T05:49:15;10.30;99.90
6956;DHT22;50345;51.136;16.886;2024-03-23T05:51:40;10.40;99.90
6956;DHT22;50345;51.136;16.886;2024-03-23T05:54:06;10.50;99.90
6956;DHT22;50345;51.136;16.886;2024-03-23T05:56:31;10.50;99.90
6956;DHT22;50345;51.136;16.886;2024-03-23T05:58:57;10.50;99.90
6956;DHT22;50345;51.136;16.886;2024-03-23T06:01:22;10.50;99.90
6956;DHT22;50345;51.136;16.886;2024-03-23T06:03:48;10.60;99.90
6956;DHT22;50345;51.136;16.886;2024-03-23T06:06:14;10.60;99.90
6956;DHT22;50345;51.136;16.886;2024-03-23T06:08:40;10.70;99.90
6956;DHT22;50345;51.136;16.886;2024-03-23T06:11:06;10.70;99.90
6956;DHT22;50345;51.136;16.886;2024-03-23T06:13:32;10.70;99.90
6956;DHT22;50345;51.136;16.886;2024-03-23T06:15:58;10.80;99.90
6956;DHT22;50345;51.136;16.886;2024-03-23T06:18:24;10.80;99.90
6956;DHT22;50345;51.136;16.886;2024-03-23T06:20:49;10.90;99.90
6956;DHT22;50345;51.136;16.886;2024-03-23T06:23:15;10.90;99.90
6956;DHT22;50345;51.136;16.886;2024-03-23T06:25:42;10.80;99.90
6956;DHT22;50345;51.136;16.886;2024-03-23T06:28:10;10.80;99.90
6956;DHT22;50345;51.136;16.886;2024-03-23T06:30:36;10.70;99.90
6956;DHT22;50345;51.136;16.886;2024-03-23T06:33:02;10.70;99.90
6956;DHT22;50345;51.136;16.886;2024-03-23T06:35:27;10.70;99.90
6956;DHT22;50345;51.136;16.886;2024-03-23T06:37:53;10.60;99.90
6956;DHT22;50345;51.136;16.886;2024-03-23T06:40:18;10.60;99.90
6956;DHT22;50345;51.136;16.886;2024-03-23T06:42:44;10.50;99.90
6956;DHT22;50345;51.136;16.886;2024-03-23T06:45:09;10.50;99.90
6956;DHT22;50345;51.136;16.886;2024-03-23T06:47:35;10.50;99.90
6956;DHT22;50345;51.136;16.886;2024-03-23T06:50:03;10.50;99.90
6956;DHT22;50345;51.136;16.886;2024-03-23T06:52:29;10.50;99.90
6956;DHT22;50345;51.136;16.886;2024-03-23T06:54:55;10.60;99.90
6956;DHT22;50345;51.136;16.886;2024-03-23T06:57:21;10.60;99.90
6956;DHT22;50345;51.136;16.886;2024-03-23T06:59:47;10.80;99.90
6956;DHT22;50345;51.136;16.886;2024-03-23T07:02:12;10.90;99.90
6956;DHT22;50345;51.136;16.886;2024-03-23T07:04:38;11.00;99.90
6956;DHT22;50345;51.136;16.886;2024-03-23T07:07:05;11.10;99.90
6956;DHT22;50345;51.136;16.886;2024-03-23T07:09:30;11.20;99.90
6956;DHT22;50345;51.136;16.886;2024-03-23T07:11:57;11.40;99.90
6956;DHT22;50345;51.136;16.886;2024-03-23T07:14:23;11.50;99.90
6956;DHT22;50345;51.136;16.886;2024-03-23T07:16:49;11.60;99.90
6956;DHT22;50345;51.136;16.886;2024-03-23T07:19:15;11.80;99.90
6956;DHT22;50345;51.136;16.886;2024-03-23T07:21:45;11.90;99.90
6956;DHT22;50345;51.136;16.886;2024-03-23T07:24:11;12.00;99.90
6956;DHT22;50345;51.136;16.886;2024-03-23T07:26:36;12.10;99.90
6956;DHT22;50345;51.136;16.886;2024-03-23T07:29:03;12.30;99.90
6956;DHT22;50345;51.136;16.886;2024-03-23T07:31:29;12.40;99.90
6956;DHT22;50345;51.136;16.886;2024-03-23T07:33:55;12.50;99.90
6956;DHT22;50345;51.136;16.886;2024-03-23T07:36:20;12.70;99.90
6956;DHT22;50345;51.136;16.886;2024-03-23T07:38:46;12.80;99.90
6956;DHT22;50345;51.136;16.886;2024-03-23T07:41:19;12.90;99.90
6956;DHT22;50345;51.136;16.886;2024-03-23T07:43:46;13.10;99.90
6956;DHT22;50345;51.136;16.886;2024-03-23T07:46:12;13.30;99.90
6956;DHT22;50345;51.136;16.886;2024-03-23T07:48:39;13.70;99.90
6956;DHT22;50345;51.136;16.886;2024-03-23T07:51:08;13.90;99.90
6956;DHT22;50345;51.136;16.886;2024-03-23T07:53:35;14.20;99.90
6956;DHT22;50345;51.136;16.886;2024-03-23T07:56:07;14.30;99.90
6956;DHT22;50345;51.136;16.886;2024-03-23T07:58:34;14.30;99.90
6956;DHT22;50345;51.136;16.886;2024-03-23T08:01:10;14.30;99.90
6956;DHT22;50345;51.136;16.886;2024-03-23T08:03:37;14.30;99.90
6956;DHT22;50345;51.136;16.886;2024-03-23T08:06:16;14.40;99.90
6956;DHT22;50345;51.136;16.886;2024-03-23T08:08:46;14.50;99.90
6956;DHT22;50345;51.136;16.886;2024-03-23T08:11:12;14.50;99.90
6956;DHT22;50345;51.136;16.886;2024-03-23T08:13:41;14.50;99.90
6956;DHT22;50345;51.136;16.886;2024-03-23T08:16:07;14.60;99.90
6956;DHT22;50345;51.136;16.886;2024-03-23T08:18:37;14.70;99.90
6956;DHT22;50345;51.136;16.886;2024-03-23T08:21:05;14.80;99.90
6956;DHT22;50345;51.136;16.886;2024-03-23T08:23:34;15.10;99.90
6956;DHT22;50345;51.136;16.886;2024-03-23T08:26:08;15.20;99.90
6956;DHT22;50345;51.136;16.886;2024-03-23T08:28:34;15.30;99.90
6956;DHT22;50345;51.136;16.886;2024-03-23T08:31:13;15.40;99.90
6956;DHT22;50345;51.136;16.886;2024-03-23T08:33:40;15.50;99.90
6956;DHT22;50345;51.136;16.886;2024-03-23T08:36:09;15.50;99.90
6956;DHT22;50345;51.136;16.886;2024-03-23T08:38:37;15.40;99.90
6956;DHT22;50345;51.136;16.886;2024-03-23T08:41:10;15.30;99.90
6956;DHT22;50345;51.136;16.886;2024-03-23T08:43:40;15.20;99.90
6956;DHT22;50345;51.136;16.886;2024-03-23T08:46:10;15.20;99.90
6956;DHT22;50345;51.136;16.886;2024-03-23T08:48:41;15.10;99.90
6956;DHT22;50345;51.136;16.886;2024-03-23T08:51:10;15.10;99.90
6956;DHT22;50345;51.136;16.886;2024-03-23T08:53:38;15.10;99.90
6956;DHT22;50345;51.136;16.886;2024-03-23T08:56:05;15.10;99.90
6956;DHT22;50345;51.136;16.886;2024-03-23T08:58:32;15.20;99.90
6956;DHT22;50345;51.136;16.886;2024-03-23T09:01:24;15.20;99.90
6956;DHT22;50345;51.136;16.886;2024-03-23T09:03:50;15.20;99.90
6956;DHT22;50345;51.136;16.886;2024-03-23T09:06:15;15.10;99.90
6956;DHT22;50345;51.136;16.886;2024-03-23T09:08:42;15.00;99.90
6956;DHT22;50345;51.136;16.886;2024-03-23T09:11:12;14.80;99.90
6956;DHT22;50345;51.136;16.886;2024-03-23T09:13:39;14.70;99.90
6956;DHT22;50345;51.136;16.886;2024-03-23T09:16:05;14.70;99.90
6956;DHT22;50345;51.136;16.886;2024-03-23T09:18:32;14.60;99.90
6956;DHT22;50345;51.136;16.886;2024-03-23T09:20:58;14.60;99.90
6956;DHT22;50345;51.136;16.886;2024-03-23T09:23:24;14.60;99.90
6956;DHT22;50345;51.136;16.886;2024-03-23T09:25:49;14.60;99.90
6956;DHT22;50345;51.136;16.886;2024-03-23T09:28:15;14.60;99.90
6956;DHT22;50345;51.136;16.886;2024-03-23T09:30:41;14.60;99.90
6956;DHT22;50345;51.136;16.886;2024-03-23T09:33:10;14.60;99.90
6956;DHT22;50345;51.136;16.886;2024-03-23T09:35:40;14.50;99.90
6956;DHT22;50345;51.136;16.886;2024-03-23T09:38:06;14.40;99.90
6956;DHT22;50345;51.136;16.886;2024-03-23T09:40:41;14.40;99.90
6956;DHT22;50345;51.136;16.886;2024-03-23T09:43:07;14.40;99.90
6956;DHT22;50345;51.136;16.886;2024-03-23T09:45:38;14.50;99.90
6956;DHT22;50345;51.136;16.886;2024-03-23T09:48:04;14.60;99.90
6956;DHT22;50345;51.136;16.886;2024-03-23T09:50:30;14.70;99.90
6956;DHT22;50345;51.136;16.886;2024-03-23T09:52:56;14.80;99.90
6956;DHT22;50345;51.136;16.886;2024-03-23T09:55:21;14.90;99.90
6956;DHT22;50345;51.136;16.886;2024-03-23T09:57:47;15.10;99.90
6956;DHT22;50345;51.136;16.886;2024-03-23T10:00:13;15.30;99.90
6956;DHT22;50345;51.136;16.886;2024-03-23T10:02:39;15.50;99.90
6956;DHT22;50345;51.136;16.886;2024-03-23T10:05:05;15.70;99.90
6956;DHT22;50345;51.136;16.886;2024-03-23T10:07:44;15.80;99.90
6956;DHT22;50345;51.136;16.886;2024-03-23T10:10:13;15.80;99.90
6956;DHT22;50345;51.136;16.886;2024-03-23T10:12:45;16.10;99.90
6956;DHT22;50345;51.136;16.886;2024-03-23T10:15:18;16.50;99.90
6956;DHT22;50345;51.136;16.886;2024-03-23T10:17:44;16.70;99.90
6956;DHT22;50345;51.136;16.886;2024-03-23T10:20:10;16.90;99.90
6956;DHT22;50345;51.136;16.886;2024-03-23T10:22:38;17.00;99.90
6956;DHT22;50345;51.136;16.886;2024-03-23T10:25:11;17.50;99.90
6956;DHT22;50345;51.136;16.886;2024-03-23T10:27:36;18.30;99.90
6956;DHT22;50345;51.136;16.886;2024-03-23T10:30:10;18.90;99.90
6956;DHT22;50345;51.136;16.886;2024-03-23T10:32:36;19.20;97.50
6956;DHT22;50345;51.136;16.886;2024-03-23T10:35:21;19.40;95.60
6956;DHT22;50345;51.136;16.886;2024-03-23T10:37:48;19.50;94.10
6956;DHT22;50345;51.136;16.886;2024-03-23T10:40:15;19.90;93.10
6956;DHT22;50345;51.136;16.886;2024-03-23T10:42:41;20.50;92.00
6956;DHT22;50345;51.136;16.886;2024-03-23T10:45:07;21.40;87.80
6956;DHT22;50345;51.136;16.886;2024-03-23T10:47:35;22.00;82.40
6956;DHT22;50345;51.136;16.886;2024-03-23T10:50:01;21.90;76.00
6956;DHT22;50345;51.136;16.886;2024-03-23T10:52:27;21.40;75.70
6956;DHT22;50345;51.136;16.886;2024-03-23T10:54:53;20.70;77.00
6956;DHT22;50345;51.136;16.886;2024-03-23T10:57:22;20.10;80.00
6956;DHT22;50345;51.136;16.886;2024-03-23T10:59:49;19.70;82.90
6956;DHT22;50345;51.136;16.886;2024-03-23T11:02:21;19.40;83.70
6956;DHT22;50345;51.136;16.886;2024-03-23T11:04:47;19.20;85.00
6956;DHT22;50345;51.136;16.886;2024-03-23T11:07:30;19.00;85.80
6956;DHT22;50345;51.136;16.886;2024-03-23T11:09:57;18.80;86.60
6956;DHT22;50345;51.136;16.886;2024-03-23T11:14:50;18.40;88.50
6956;DHT22;50345;51.136;16.886;2024-03-23T11:17:23;18.30;89.70
6956;DHT22;50345;51.136;16.886;2024-03-23T11:20:04;18.30;90.40
6956;DHT22;50345;51.136;16.886;2024-03-23T11:22:45;18.30;90.60
6956;DHT22;50345;51.136;16.886;2024-03-23T11:27:50;18.60;90.00
6956;DHT22;50345;51.136;16.886;2024-03-23T11:30:20;18.80;90.30
6956;DHT22;50345;51.136;16.886;2024-03-23T11:32:51;19.00;89.70
6956;DHT22;50345;51.136;16.886;2024-03-23T11:35:31;19.30;88.10
6956;DHT22;50345;51.136;16.886;2024-03-23T11:38:14;19.70;87.10
6956;DHT22;50345;51.136;16.886;2024-03-23T11:40:42;20.10;83.20
6956;DHT22;50345;51.136;16.886;2024-03-23T11:43:12;20.00;79.60
6956;DHT22;50345;51.136;16.886;2024-03-23T11:45:38;19.70;80.90
6956;DHT22;50345;51.136;16.886;2024-03-23T11:48:10;19.40;83.30
6956;DHT22;50345;51.136;16.886;2024-03-23T11:50:40;19.10;82.00
6956;DHT22;50345;51.136;16.886;2024-03-23T11:53:07;18.80;83.10
6956;DHT22;50345;51.136;16.886;2024-03-23T11:55:46;18.50;82.70
6956;DHT22;50345;51.136;16.886;2024-03-23T11:58:12;18.30;84.00
6956;DHT22;50345;51.136;16.886;2024-03-23T12:00:39;18.10;87.10
6956;DHT22;50345;51.136;16.886;2024-03-23T12:03:05;18.00;87.30
6956;DHT22;50345;51.136;16.886;2024-03-23T12:05:32;17.70;90.30
6956;DHT22;50345;51.136;16.886;2024-03-23T12:08:17;17.60;92.50
6956;DHT22;50345;51.136;16.886;2024-03-23T12:11:13;17.50;94.10
6956;DHT22;50345;51.136;16.886;2024-03-23T12:13:40;17.40;91.40
6956;DHT22;50345;51.136;16.886;2024-03-23T12:16:14;17.30;91.90
6956;DHT22;50345;51.136;16.886;2024-03-23T12:18:44;17.40;92.10
6956;DHT22;50345;51.136;16.886;2024-03-23T12:21:10;17.50;90.90
6956;DHT22;50345;51.136;16.886;2024-03-23T12:23:38;17.60;90.30
6956;DHT22;50345;51.136;16.886;2024-03-23T12:26:04;17.60;90.00
6956;DHT22;50345;51.136;16.886;2024-03-23T12:28:29;17.70;87.80
6956;DHT22;50345;51.136;16.886;2024-03-23T12:30:55;17.60;86.60
6956;DHT22;50345;51.136;16.886;2024-03-23T12:33:21;17.50;87.60
6956;DHT22;50345;51.136;16.886;2024-03-23T12:35:50;17.40;86.70
6956;DHT22;50345;51.136;16.886;2024-03-23T12:38:16;17.20;86.80
6956;DHT22;50345;51.136;16.886;2024-03-23T12:40:46;17.10;88.10
6956;DHT22;50345;51.136;16.886;2024-03-23T12:43:13;17.00;88.50
6956;DHT22;50345;51.136;16.886;2024-03-23T12:45:38;16.90;88.10
6956;DHT22;50345;51.136;16.886;2024-03-23T12:48:04;16.90;89.80
6956;DHT22;50345;51.136;16.886;2024-03-23T12:50:30;16.80;90.30
6956;DHT22;50345;51.136;16.886;2024-03-23T12:52:55;16.80;89.70
6956;DHT22;50345;51.136;16.886;2024-03-23T12:55:21;16.70;88.70
6956;DHT22;50345;51.136;16.886;2024-03-23T12:57:47;16.70;89.60
6956;DHT22;50345;51.136;16.886;2024-03-23T13:00:13;16.70;90.70
6956;DHT22;50345;51.136;16.886;2024-03-23T13:02:41;16.50;91.80
6956;DHT22;50345;51.136;16.886;2024-03-23T13:05:07;16.00;92.90
6956;DHT22;50345;51.136;16.886;2024-03-23T13:07:34;15.60;93.90
6956;DHT22;50345;51.136;16.886;2024-03-23T13:10:00;15.20;93.90
6956;DHT22;50345;51.136;16.886;2024-03-23T13:12:26;14.70;96.30
6956;DHT22;50345;51.136;16.886;2024-03-23T13:14:52;14.20;99.90
6956;DHT22;50345;51.136;16.886;2024-03-23T13:17:17;13.90;99.90
6956;DHT22;50345;51.136;16.886;2024-03-23T13:19:43;13.50;99.90
6956;DHT22;50345;51.136;16.886;2024-03-23T13:22:09;13.20;99.90
6956;DHT22;50345;51.136;16.886;2024-03-23T13:24:37;13.00;99.90
6956;DHT22;50345;51.136;16.886;2024-03-23T13:27:03;12.90;99.90
6956;DHT22;50345;51.136;16.886;2024-03-23T13:29:30;12.90;99.90
6956;DHT22;50345;51.136;16.886;2024-03-23T13:31:55;12.90;99.90
6956;DHT22;50345;51.136;16.886;2024-03-23T13:34:21;13.00;99.90
6956;DHT22;50345;51.136;16.886;2024-03-23T13:36:47;13.10;99.90
6956;DHT22;50345;51.136;16.886;2024-03-23T13:39:13;13.30;99.90
6956;DHT22;50345;51.136;16.886;2024-03-23T13:41:44;13.30;99.90
6956;DHT22;50345;51.136;16.886;2024-03-23T13:44:11;13.20;99.90
6956;DHT22;50345;51.136;16.886;2024-03-23T13:46:39;12.90;99.90
6956;DHT22;50345;51.136;16.886;2024-03-23T13:49:05;12.60;99.90
6956;DHT22;50345;51.136;16.886;2024-03-23T13:51:32;12.40;99.90
6956;DHT22;50345;51.136;16.886;2024-03-23T13:53:57;12.20;99.90
6956;DHT22;50345;51.136;16.886;2024-03-23T13:56:29;11.90;99.90
6956;DHT22;50345;51.136;16.886;2024-03-23T13:58:57;11.60;99.90
6956;DHT22;50345;51.136;16.886;2024-03-23T14:01:23;11.30;99.90
6956;DHT22;50345;51.136;16.886;2024-03-23T14:03:49;11.00;99.90
6956;DHT22;50345;51.136;16.886;2024-03-23T14:06:15;10.80;99.90
6956;DHT22;50345;51.136;16.886;2024-03-23T14:08:40;10.70;99.90
6956;DHT22;50345;51.136;16.886;2024-03-23T14:11:07;10.60;99.90
6956;DHT22;50345;51.136;16.886;2024-03-23T14:13:32;10.80;99.90
6956;DHT22;50345;51.136;16.886;2024-03-23T14:15:58;10.90;99.90
6956;DHT22;50345;51.136;16.886;2024-03-23T14:18:24;10.80;99.90
6956;DHT22;50345;51.136;16.886;2024-03-23T14:20:52;10.60;99.90
6956;DHT22;50345;51.136;16.886;2024-03-23T14:23:19;10.40;99.90
6956;DHT22;50345;51.136;16.886;2024-03-23T14:25:44;10.30;99.90
6956;DHT22;50345;51.136;16.886;2024-03-23T14:28:10;10.20;99.90
6956;DHT22;50345;51.136;16.886;2024-03-23T14:30:41;10.10;99.90
6956;DHT22;50345;51.136;16.886;2024-03-23T14:33:07;10.00;99.90
6956;DHT22;50345;51.136;16.886;2024-03-23T14:35:32;10.00;99.90
6956;DHT22;50345;51.136;16.886;2024-03-23T14:37:58;9.80;99.90
6956;DHT22;50345;51.136;16.886;2024-03-23T14:40:24;9.70;99.90
6956;DHT22;50345;51.136;16.886;2024-03-23T14:42:53;9.60;99.90
6956;DHT22;50345;51.136;16.886;2024-03-23T14:45:19;9.60;99.90
6956;DHT22;50345;51.136;16.886;2024-03-23T14:47:44;9.70;99.90
6956;DHT22;50345;51.136;16.886;2024-03-23T14:50:10;9.80;99.90
6956;DHT22;50345;51.136;16.886;2024-03-23T14:52:41;9.70;99.90
6956;DHT22;50345;51.136;16.886;2024-03-23T14:55:07;9.70;99.90
6956;DHT22;50345;51.136;16.886;2024-03-23T14:57:34;9.60;99.90
6956;DHT22;50345;51.136;16.886;2024-03-23T15:00:00;9.50;99.90
6956;DHT22;50345;51.136;16.886;2024-03-23T15:02:26;9.40;99.90
6956;DHT22;50345;51.136;16.886;2024-03-23T15:04:53;9.10;99.90
6956;DHT22;50345;51.136;16.886;2024-03-23T15:07:19;8.80;99.90
6956;DHT22;50345;51.136;16.886;2024-03-23T15:09:45;8.50;99.90
6956;DHT22;50345;51.136;16.886;2024-03-23T15:12:10;8.40;99.90
6956;DHT22;50345;51.136;16.886;2024-03-23T15:14:37;8.30;99.90
6956;DHT22;50345;51.136;16.886;2024-03-23T15:17:02;8.10;99.90
6956;DHT22;50345;51.136;16.886;2024-03-23T15:19:32;8.00;99.90
6956;DHT22;50345;51.136;16.886;2024-03-23T15:21:58;7.90;99.90
6956;DHT22;50345;51.136;16.886;2024-03-23T15:24:23;7.80;99.90
6956;DHT22;50345;51.136;16.886;2024-03-23T15:26:49;7.80;99.90
6956;DHT22;50345;51.136;16.886;2024-03-23T15:29:17;7.90;99.90
6956;DHT22;50345;51.136;16.886;2024-03-23T15:31:43;7.90;99.90
6956;DHT22;50345;51.136;16.886;2024-03-23T15:34:10;8.00;99.90
6956;DHT22;50345;51.136;16.886;2024-03-23T15:36:39;8.10;99.90
6956;DHT22;50345;51.136;16.886;2024-03-23T15:39:05;8.20;99.90
6956;DHT22;50345;51.136;16.886;2024-03-23T15:41:31;8.20;99.90
6956;DHT22;50345;51.136;16.886;2024-03-23T15:43:59;8.20;99.90
6956;DHT22;50345;51.136;16.886;2024-03-23T15:46:25;8.20;99.90
6956;DHT22;50345;51.136;16.886;2024-03-23T15:48:50;8.20;99.90
6956;DHT22;50345;51.136;16.886;2024-03-23T15:51:16;8.20;99.90
6956;DHT22;50345;51.136;16.886;2024-03-23T15:53:43;8.20;99.90
6956;DHT22;50345;51.136;16.886;2024-03-23T15:56:09;8.10;99.90
6956;DHT22;50345;51.136;16.886;2024-03-23T15:58:34;8.20;99.90
6956;DHT22;50345;51.136;16.886;2024-03-23T16:01:06;8.10;99.90
6956;DHT22;50345;51.136;16.886;2024-03-23T16:03:32;8.10;99.90
6956;DHT22;50345;51.136;16.886;2024-03-23T16:05:59;8.10;99.90
6956;DHT22;50345;51.136;16.886;2024-03-23T16:08:26;8.10;99.90
6956;DHT22;50345;51.136;16.886;2024-03-23T16:10:52;8.10;99.90
6956;DHT22;50345;51.136;16.886;2024-03-23T16:13:18;8.10;99.90
6956;DHT22;50345;51.136;16.886;2024-03-23T16:15:45;8.10;99.90
6956;DHT22;50345;51.136;16.886;2024-03-23T16:18:11;8.10;99.90
6956;DHT22;50345;51.136;16.886;2024-03-23T16:20:36;8.00;99.90
6956;DHT22;50345;51.136;16.886;2024-03-23T16:23:03;8.00;99.90
6956;DHT22;50345;51.136;16.886;2024-03-23T16:25:28;8.00;99.90
6956;DHT22;50345;51.136;16.886;2024-03-23T16:27:54;8.00;99.90